createdAt,value
2017-08-04T00:02:06.848Z,1.83
2017-08-04T00:04:41.616Z,1.83
2017-08-04T00:07:17.318Z,2.00
2017-08-04T00:09:51.844Z,1.80
2017-08-04T00:12:26.499Z,2.00
2017-08-04T00:15:01.224Z,1.87
2017-08-04T00:17:35.835Z,1.43
2017-08-04T00:20:10.564Z,1.67
2017-08-04T00:22:45.296Z,1.60
2017-08-04T00:25:19.912Z,2.00
2017-08-04T00:27:54.543Z,1.97
2017-08-04T00:30:29.071Z,1.80
2017-08-04T00:33:04.480Z,1.47
2017-08-04T00:35:39.404Z,2.00
2017-08-04T00:38:14.187Z,1.53
2017-08-04T00:40:48.901Z,1.57
2017-08-04T00:43:23.524Z,1.60
2017-08-04T00:45:58.155Z,1.67
2017-08-04T00:48:32.888Z,1.40
2017-08-04T00:51:07.384Z,2.03
2017-08-04T00:53:42.976Z,1.60
2017-08-04T00:56:17.719Z,1.70
2017-08-04T00:58:52.296Z,1.47
2017-08-04T01:01:26.857Z,1.90
2017-08-04T01:04:01.618Z,1.93
2017-08-04T01:06:36.308Z,2.70
2017-08-04T01:09:10.916Z,1.50
2017-08-04T01:11:46.449Z,2.00
2017-08-04T01:14:21.110Z,2.17
2017-08-04T01:16:55.800Z,1.50
2017-08-04T01:19:30.547Z,1.77
2017-08-04T01:22:05.091Z,1.80
2017-08-04T01:24:39.772Z,1.83
2017-08-04T01:27:14.416Z,1.87
2017-08-04T01:29:49.175Z,1.73
2017-08-04T01:32:23.315Z,1.97
2017-08-04T01:34:58.239Z,2.10
2017-08-04T01:37:32.927Z,1.80
2017-08-04T01:40:07.563Z,2.17
2017-08-04T01:42:42.113Z,2.10
2017-08-04T01:45:17.768Z,1.57
2017-08-04T01:47:52.268Z,1.60
2017-08-04T01:50:25.603Z,1.50
2017-08-04T01:53:01.447Z,1.40
2017-08-04T01:55:36.127Z,1.60
2017-08-04T01:58:10.880Z,2.10
2017-08-04T02:00:45.605Z,1.77
2017-08-04T02:03:19.876Z,2.00
2017-08-04T02:05:54.572Z,1.83
2017-08-04T02:08:30.194Z,1.40
2017-08-04T02:11:05.220Z,1.90
2017-08-04T02:13:40.819Z,2.30
2017-08-04T02:16:15.456Z,2.17
2017-08-04T02:18:50.105Z,1.40
2017-08-04T02:21:25.854Z,1.30
2017-08-04T02:24:01.414Z,1.70
2017-08-04T02:26:35.928Z,1.57
2017-08-04T02:29:10.466Z,2.17
2017-08-04T02:31:46.116Z,1.20
2017-08-04T02:34:20.532Z,1.50
2017-08-04T02:36:55.183Z,1.73
2017-08-04T02:39:29.802Z,2.00
2017-08-04T02:42:04.603Z,1.60
2017-08-04T02:44:39.340Z,1.60
2017-08-04T02:47:14.051Z,1.70
2017-08-04T02:49:48.671Z,1.60
2017-08-04T02:52:23.048Z,1.17
2017-08-04T02:54:58.059Z,2.30
2017-08-04T02:57:32.586Z,1.60
2017-08-04T03:00:07.130Z,1.53
2017-08-04T03:02:41.760Z,1.63
2017-08-04T03:05:16.246Z,1.40
2017-08-04T03:07:50.984Z,1.50
2017-08-04T03:10:25.528Z,1.73
2017-08-04T03:13:00.172Z,2.33
2017-08-04T03:15:34.842Z,2.10
2017-08-04T03:18:09.447Z,1.50
2017-08-04T03:20:44.940Z,1.33
2017-08-04T03:23:19.456Z,1.23
2017-08-04T03:25:53.967Z,1.53
2017-08-04T03:28:28.732Z,1.67
2017-08-04T03:31:03.371Z,1.30
2017-08-04T03:33:37.916Z,1.60
2017-08-04T03:36:12.536Z,1.20
2017-08-04T03:38:47.097Z,1.50
2017-08-04T03:41:22.875Z,1.37
2017-08-04T03:43:57.487Z,1.17
2017-08-04T03:46:32.254Z,1.50
2017-08-04T03:49:06.952Z,1.73
2017-08-04T03:51:41.579Z,1.10
2017-08-04T03:54:16.307Z,1.97
2017-08-04T03:56:52.006Z,1.73
2017-08-04T03:59:26.593Z,3.03
2017-08-04T04:02:00.928Z,3.57
2017-08-04T04:04:35.495Z,4.43
2017-08-04T04:07:10.347Z,2.90
2017-08-04T04:09:46.003Z,1.63
2017-08-04T04:12:20.604Z,1.80
2017-08-04T04:14:55.150Z,1.80
2017-08-04T04:17:29.997Z,1.93
2017-08-04T04:20:04.540Z,1.90
2017-08-04T04:22:39.188Z,1.90
2017-08-04T04:25:13.873Z,1.47
2017-08-04T04:27:48.551Z,1.67
2017-08-04T04:30:23.148Z,2.50
2017-08-04T04:32:57.684Z,2.70
2017-08-04T04:35:32.304Z,2.43
2017-08-04T04:38:06.892Z,2.30
2017-08-04T04:40:41.524Z,2.83
2017-08-04T04:43:16.156Z,2.50
2017-08-04T04:45:50.583Z,2.43
2017-08-04T04:48:25.155Z,1.70
2017-08-04T04:50:59.835Z,2.13
2017-08-04T04:53:34.261Z,2.77
2017-08-04T04:56:08.661Z,1.93
2017-08-04T04:58:43.263Z,1.90
2017-08-04T05:01:17.915Z,2.00
2017-08-04T05:03:52.581Z,2.27
2017-08-04T05:06:28.294Z,3.00
2017-08-04T05:09:03.137Z,2.60
2017-08-04T05:11:38.884Z,1.80
2017-08-04T05:14:14.539Z,1.80
2017-08-04T05:16:49.060Z,2.27
2017-08-04T05:19:23.567Z,2.10
2017-08-04T05:21:58.228Z,1.63
2017-08-04T05:24:32.940Z,2.07
2017-08-04T05:27:07.651Z,1.70
2017-08-04T05:29:43.287Z,1.73
2017-08-04T05:32:17.940Z,2.50
2017-08-04T05:34:52.697Z,2.13
2017-08-04T05:37:27.304Z,1.70
2017-08-04T05:40:02.027Z,1.80
2017-08-04T05:42:36.320Z,1.53
2017-08-04T05:45:11.336Z,2.10
2017-08-04T05:47:45.968Z,1.40
2017-08-04T05:50:20.483Z,1.70
2017-08-04T05:52:55.251Z,2.13
2017-08-04T05:55:29.731Z,1.63
2017-08-04T05:58:04.421Z,2.70
2017-08-04T06:00:40.058Z,2.23
2017-08-04T06:03:14.527Z,2.37
2017-08-04T06:05:49.222Z,2.27
2017-08-04T06:08:23.956Z,2.27
2017-08-04T06:10:58.483Z,2.50
2017-08-04T06:13:33.224Z,2.90
2017-08-04T06:16:07.933Z,1.80
2017-08-04T06:18:42.568Z,2.07
2017-08-04T06:21:17.061Z,1.50
2017-08-04T06:23:51.808Z,1.80
2017-08-04T06:26:27.474Z,1.97
2017-08-04T06:29:02.079Z,2.03
2017-08-04T06:31:36.795Z,2.20
2017-08-04T06:34:11.421Z,1.87
2017-08-04T06:36:46.153Z,2.90
2017-08-04T06:39:20.787Z,1.70
2017-08-04T06:41:55.427Z,2.37
2017-08-04T06:44:31.160Z,2.43
2017-08-04T06:47:06.915Z,2.10
2017-08-04T06:49:52.656Z,1.30
2017-08-04T06:52:39.012Z,1.63
2017-08-04T06:55:24.323Z,2.47
2017-08-04T06:57:59.655Z,1.27
2017-08-04T07:00:34.055Z,1.77
2017-08-04T07:03:08.965Z,1.83
2017-08-04T07:05:44.630Z,1.70
2017-08-04T07:08:19.196Z,1.50
2017-08-04T07:10:53.842Z,1.50
2017-08-04T07:13:28.438Z,1.47
2017-08-04T07:16:04.165Z,1.40
2017-08-04T07:18:38.903Z,1.83
2017-08-04T07:21:14.495Z,1.30
2017-08-04T07:23:49.172Z,1.97
2017-08-04T07:26:23.878Z,1.23
2017-08-04T07:28:58.529Z,2.07
2017-08-04T07:31:33.035Z,1.60
2017-08-04T07:34:08.567Z,1.43
2017-08-04T07:36:43.133Z,1.70
2017-08-04T07:39:17.831Z,1.50
2017-08-04T07:41:52.432Z,1.37
2017-08-04T07:44:27.095Z,1.77
2017-08-04T07:47:01.693Z,1.50
2017-08-04T07:49:36.084Z,1.07
2017-08-04T07:52:11.083Z,1.20
2017-08-04T07:54:45.816Z,1.50
2017-08-04T07:57:20.514Z,1.17
2017-08-04T07:59:55.124Z,1.47
2017-08-04T08:02:30.196Z,1.60
2017-08-04T08:05:05.336Z,1.67
2017-08-04T08:07:39.980Z,1.77
2017-08-04T08:10:14.736Z,1.90
2017-08-04T08:12:49.336Z,2.37
2017-08-04T08:15:23.887Z,4.17
2017-08-04T08:17:58.544Z,2.10
2017-08-04T08:20:34.239Z,1.70
2017-08-04T08:23:08.875Z,2.00
2017-08-04T08:25:43.584Z,1.70
2017-08-04T08:28:18.297Z,1.93
2017-08-04T08:30:53.035Z,1.87
2017-08-04T08:33:27.692Z,1.53
2017-08-04T08:36:02.354Z,1.77
2017-08-04T08:38:38.047Z,1.50
2017-08-04T08:41:12.757Z,1.73
2017-08-04T08:43:47.433Z,1.40
2017-08-04T08:46:22.057Z,1.50
2017-08-04T08:48:56.785Z,1.50
2017-08-04T08:51:31.487Z,1.40
2017-08-04T08:54:06.155Z,1.50
2017-08-04T08:56:40.772Z,1.17
2017-08-04T08:59:15.280Z,1.70
2017-08-04T09:01:50.056Z,1.30
2017-08-04T09:04:24.844Z,1.40
2017-08-04T09:06:59.536Z,1.37
2017-08-04T09:09:34.059Z,2.97
2017-08-04T09:12:08.877Z,3.07
2017-08-04T09:14:43.303Z,2.50
2017-08-04T09:17:18.011Z,1.80
2017-08-04T09:19:52.624Z,1.40
2017-08-04T09:22:27.298Z,1.17
2017-08-04T09:25:01.924Z,1.77
2017-08-04T09:27:36.680Z,1.40
2017-08-04T09:30:11.480Z,1.50
2017-08-04T09:32:46.203Z,1.07
2017-08-04T09:35:20.933Z,1.73
2017-08-04T09:37:55.570Z,0.97
2017-08-04T09:40:30.096Z,1.07
2017-08-04T09:43:04.600Z,1.10
2017-08-04T09:45:40.370Z,1.23
2017-08-04T09:48:16.124Z,1.10
2017-08-04T09:50:51.883Z,1.30
2017-08-04T09:53:26.479Z,1.40
2017-08-04T09:56:01.246Z,0.90
2017-08-04T09:58:35.856Z,0.97
2017-08-04T10:01:10.392Z,1.20
2017-08-04T10:03:45.270Z,0.97
2017-08-04T10:06:19.875Z,1.60
2017-08-04T10:08:54.531Z,1.10
2017-08-04T10:11:29.128Z,0.97
2017-08-04T10:14:03.792Z,1.03
2017-08-04T10:16:38.542Z,1.20
2017-08-04T10:19:13.396Z,1.30
2017-08-04T10:21:48.153Z,1.97
2017-08-04T10:24:22.584Z,0.90
2017-08-04T10:26:57.432Z,2.37
2017-08-04T10:29:32.159Z,1.40
2017-08-04T10:32:06.816Z,1.30
2017-08-04T10:34:41.528Z,1.40
2017-08-04T10:37:16.244Z,1.20
2017-08-04T10:39:50.732Z,1.10
2017-08-04T10:42:25.498Z,0.93
2017-08-04T10:45:00.207Z,1.23
2017-08-04T10:47:35.910Z,1.47
2017-08-04T10:50:10.511Z,1.00
2017-08-04T10:52:45.296Z,1.13
2017-08-04T10:55:19.895Z,1.30
2017-08-04T10:57:54.624Z,1.00
2017-08-04T11:00:29.222Z,1.23
2017-08-04T11:03:03.959Z,1.30
2017-08-04T11:05:38.739Z,1.27
2017-08-04T11:08:13.272Z,1.03
2017-08-04T11:10:47.871Z,1.23
2017-08-04T11:13:22.595Z,1.10
2017-08-04T11:15:57.239Z,1.27
2017-08-04T11:18:32.023Z,1.27
2017-08-04T11:21:06.559Z,1.57
2017-08-04T11:23:41.282Z,1.00
2017-08-04T11:26:15.848Z,1.23
2017-08-04T11:28:50.448Z,1.50
2017-08-04T11:31:25.239Z,1.53
2017-08-04T11:33:59.995Z,1.70
2017-08-04T11:36:34.709Z,1.60
2017-08-04T11:39:09.255Z,1.90
2017-08-04T11:41:43.959Z,1.60
2017-08-04T11:44:18.587Z,1.40
2017-08-04T11:46:54.343Z,2.07
2017-08-04T11:49:29.076Z,1.50
2017-08-04T11:52:04.726Z,1.87
2017-08-04T11:54:39.357Z,1.80
2017-08-04T11:57:14.036Z,2.30
2017-08-04T11:59:48.802Z,1.90
2017-08-04T12:02:23.543Z,1.67
2017-08-04T12:04:58.176Z,1.80
2017-08-04T12:07:33.922Z,2.40
2017-08-04T12:10:08.543Z,2.63
2017-08-04T12:12:43.060Z,3.10
2017-08-04T12:15:17.707Z,1.90
2017-08-04T12:17:52.311Z,2.00
2017-08-04T12:20:26.968Z,1.80
2017-08-04T12:23:01.616Z,1.80
2017-08-04T12:25:36.195Z,1.77
2017-08-04T12:28:11.958Z,2.30
2017-08-04T12:30:46.485Z,2.10
2017-08-04T12:33:21.226Z,1.97
2017-08-04T12:35:55.984Z,2.27
2017-08-04T12:38:30.696Z,2.10
2017-08-04T12:41:05.239Z,3.30
2017-08-04T12:43:39.819Z,2.27
2017-08-04T12:46:15.141Z,2.67
2017-08-04T12:48:50.020Z,2.10
2017-08-04T12:51:24.708Z,2.03
2017-08-04T12:54:00.388Z,2.43
2017-08-04T12:56:34.911Z,1.63
2017-08-04T12:59:09.499Z,2.83
2017-08-04T13:01:44.061Z,2.07
2017-08-04T13:04:19.883Z,2.60
2017-08-04T13:06:55.604Z,2.30
2017-08-04T13:09:29.987Z,1.67
2017-08-04T13:12:04.803Z,1.80
2017-08-04T13:14:39.425Z,2.03
2017-08-04T13:17:13.960Z,2.63
2017-08-04T13:19:48.527Z,2.27
2017-08-04T13:22:23.116Z,2.30
2017-08-04T13:24:57.732Z,2.57
2017-08-04T13:27:32.438Z,2.27
2017-08-04T13:30:06.987Z,2.23
2017-08-04T13:32:41.531Z,2.23
2017-08-04T13:35:16.231Z,2.27
2017-08-04T13:37:50.694Z,2.60
2017-08-04T13:40:25.578Z,2.67
2017-08-04T13:43:00.515Z,2.13
2017-08-04T13:45:35.055Z,2.20
2017-08-04T13:48:09.674Z,2.30
2017-08-04T13:50:44.228Z,2.63
2017-08-04T13:53:18.774Z,3.30
2017-08-04T13:55:53.568Z,3.20
2017-08-04T13:58:28.264Z,3.17
2017-08-04T14:01:03.791Z,3.20
2017-08-04T14:03:38.593Z,2.87
2017-08-04T14:06:13.156Z,2.47
2017-08-04T14:08:47.753Z,2.47
2017-08-04T14:11:23.459Z,2.97
2017-08-04T14:13:59.283Z,2.10
2017-08-04T14:16:33.995Z,2.20
2017-08-04T14:19:08.673Z,2.47
2017-08-04T14:21:44.306Z,2.70
2017-08-04T14:24:18.919Z,2.80
2017-08-04T14:26:53.693Z,2.77
2017-08-04T14:29:28.995Z,2.63
2017-08-04T14:32:03.636Z,2.40
2017-08-04T14:34:38.263Z,2.90
2017-08-04T14:37:13.865Z,3.10
2017-08-04T14:39:48.402Z,2.20
2017-08-04T14:42:23.168Z,3.10
2017-08-04T14:44:57.780Z,1.77
2017-08-04T14:47:32.520Z,3.03
2017-08-04T14:50:07.216Z,2.57
2017-08-04T14:52:41.908Z,4.30
2017-08-04T14:55:16.462Z,2.40
2017-08-04T14:57:52.149Z,2.50
2017-08-04T15:00:26.895Z,2.93
2017-08-04T15:03:01.527Z,2.10
2017-08-04T15:05:36.187Z,2.00
2017-08-04T15:08:10.735Z,2.33
2017-08-04T15:10:45.364Z,2.73
2017-08-04T15:13:20.088Z,2.60
2017-08-04T15:15:54.814Z,2.10
2017-08-04T15:18:29.447Z,2.83
2017-08-04T15:21:04.143Z,2.00
2017-08-04T15:23:38.795Z,1.90
2017-08-04T15:26:13.438Z,1.80
2017-08-04T15:28:48.088Z,1.70
2017-08-04T15:31:22.438Z,1.40
2017-08-04T15:33:57.215Z,1.40
2017-08-04T15:36:31.924Z,3.40
2017-08-04T15:39:06.571Z,1.50
2017-08-04T15:41:41.228Z,1.33
2017-08-04T15:44:15.984Z,1.30
2017-08-04T15:46:50.690Z,1.50
2017-08-04T15:49:26.442Z,1.50
2017-08-04T15:52:01.156Z,1.40
2017-08-04T15:54:35.692Z,1.40
2017-08-04T15:57:11.440Z,1.20
2017-08-04T15:59:45.951Z,1.33
2017-08-04T16:02:20.638Z,0.77
2017-08-04T16:04:55.301Z,1.17
2017-08-04T16:07:30.959Z,1.20
2017-08-04T16:10:05.737Z,1.17
2017-08-04T16:12:40.429Z,1.50
2017-08-04T16:15:15.068Z,1.30
2017-08-04T16:17:49.675Z,1.67
2017-08-04T16:20:24.243Z,1.20
2017-08-04T16:22:58.935Z,1.30
2017-08-04T16:25:33.503Z,1.37
2017-08-04T16:28:08.231Z,1.67
2017-08-04T16:30:43.120Z,1.20
2017-08-04T16:33:17.745Z,1.27
2017-08-04T16:35:52.445Z,1.57
2017-08-04T16:38:27.039Z,2.43
2017-08-04T16:41:01.592Z,1.57
2017-08-04T16:43:36.338Z,1.60
2017-08-04T16:46:12.079Z,1.20
2017-08-04T16:48:46.788Z,1.40
2017-08-04T16:51:21.500Z,1.63
2017-08-04T16:53:55.986Z,1.73
2017-08-04T16:56:30.695Z,1.93
2017-08-04T16:59:05.439Z,1.70
2017-08-04T17:01:39.968Z,1.20
2017-08-04T17:04:14.628Z,1.37
2017-08-04T17:06:49.220Z,1.53
2017-08-04T17:09:23.857Z,1.50
2017-08-04T17:11:59.517Z,1.60
2017-08-04T17:14:34.204Z,1.30
2017-08-04T17:17:08.699Z,1.40
2017-08-04T17:19:43.347Z,1.43
2017-08-04T17:22:18.116Z,1.37
2017-08-04T17:24:52.728Z,1.57
2017-08-04T17:27:27.540Z,1.60
2017-08-04T17:30:02.055Z,2.07
2017-08-04T17:32:36.643Z,1.70
2017-08-04T17:35:11.217Z,1.93
2017-08-04T17:37:45.731Z,1.60
2017-08-04T17:40:20.374Z,1.50
2017-08-04T17:42:54.944Z,1.80
2017-08-04T17:45:29.537Z,1.43
2017-08-04T17:48:04.268Z,1.30
2017-08-04T17:50:39.068Z,1.87
2017-08-04T17:53:13.699Z,1.63
2017-08-04T17:55:48.215Z,2.30
2017-08-04T17:58:41.132Z,2.00
2017-08-04T18:01:15.623Z,1.70
2017-08-04T18:03:50.367Z,3.27
2017-08-04T18:06:24.983Z,2.37
2017-08-04T18:08:59.667Z,2.50
2017-08-04T18:11:34.429Z,2.43
2017-08-04T18:14:09.135Z,3.00
2017-08-04T18:16:43.781Z,2.80
2017-08-04T18:19:18.384Z,2.40
2017-08-04T18:21:52.939Z,2.07
2017-08-04T18:24:27.710Z,2.30
2017-08-04T18:27:02.362Z,1.90
2017-08-04T18:29:36.999Z,1.83
2017-08-04T18:32:11.557Z,1.77
2017-08-04T18:34:47.331Z,3.50
2017-08-04T18:37:21.984Z,3.60
2017-08-04T18:39:56.703Z,4.37
2017-08-04T18:42:31.356Z,17.07
2017-08-04T18:45:06.059Z,8.70
2017-08-04T18:47:40.807Z,10.73
2017-08-04T18:50:15.423Z,7.20
2017-08-04T18:52:50.170Z,3.20
2017-08-04T18:55:25.832Z,2.20
2017-08-04T18:58:00.469Z,2.17
2017-08-04T19:00:35.155Z,1.97
2017-08-04T19:03:09.658Z,1.67
2017-08-04T19:05:45.819Z,1.90
2017-08-04T19:08:21.028Z,2.27
2017-08-04T19:10:55.754Z,2.60
2017-08-04T19:13:30.378Z,2.00
2017-08-04T19:16:05.816Z,2.20
2017-08-04T19:18:40.535Z,1.90
2017-08-04T19:21:15.149Z,2.87
2017-08-04T19:23:49.710Z,1.60
2017-08-04T19:26:24.250Z,2.07
2017-08-04T19:28:58.975Z,2.57
2017-08-04T19:31:33.609Z,2.53
2017-08-04T19:34:08.307Z,2.60
2017-08-04T19:36:42.990Z,2.70
2017-08-04T19:39:17.652Z,2.20
2017-08-04T19:41:53.294Z,3.30
2017-08-04T19:44:29.020Z,5.10
2017-08-04T19:47:03.647Z,2.70
2017-08-04T19:49:38.312Z,2.13
2017-08-04T19:52:13.112Z,2.13
2017-08-04T19:54:47.793Z,1.53
2017-08-04T19:57:22.562Z,2.10
2017-08-04T19:59:57.219Z,1.90
2017-08-04T20:02:31.740Z,1.77
2017-08-04T20:05:06.475Z,2.00
2017-08-04T20:07:41.136Z,1.73
2017-08-04T20:10:15.774Z,1.87
2017-08-04T20:12:50.539Z,2.17
2017-08-04T20:15:25.268Z,1.80
2017-08-04T20:17:59.977Z,2.30
2017-08-04T20:20:34.630Z,1.80
2017-08-04T20:23:09.228Z,2.03
2017-08-04T20:25:44.053Z,1.73
2017-08-04T20:28:18.707Z,1.80
2017-08-04T20:30:53.417Z,2.03
2017-08-04T20:33:28.293Z,2.10
2017-08-04T20:36:03.023Z,2.23
2017-08-04T20:38:37.824Z,2.20
2017-08-04T20:41:12.575Z,2.03
2017-08-04T20:43:47.208Z,2.57
2017-08-04T20:46:21.813Z,2.27
2017-08-04T20:48:56.438Z,2.37
2017-08-04T20:51:30.968Z,2.83
2017-08-04T20:54:05.578Z,3.10
2017-08-04T20:56:40.272Z,2.90
2017-08-04T20:59:14.903Z,2.90
2017-08-04T21:01:49.533Z,2.97
2017-08-04T21:04:24.049Z,2.60
2017-08-04T21:06:58.744Z,3.13
2017-08-04T21:09:33.422Z,2.40
2017-08-04T21:12:09.042Z,2.30
2017-08-04T21:14:43.670Z,2.67
2017-08-04T21:17:18.356Z,2.60
2017-08-04T21:19:53.131Z,2.50
2017-08-04T21:22:27.730Z,1.93
2017-08-04T21:25:02.331Z,2.20
2017-08-04T21:27:37.069Z,2.50
2017-08-04T21:30:11.831Z,2.40
2017-08-04T21:32:46.516Z,2.60
2017-08-04T21:35:21.259Z,2.37
2017-08-04T21:37:55.968Z,2.40
2017-08-04T21:40:30.506Z,1.90
2017-08-04T21:43:06.152Z,2.03
2017-08-04T21:45:41.919Z,1.80
2017-08-04T21:48:16.566Z,2.27
2017-08-04T21:50:51.088Z,1.93
2017-08-04T21:53:25.719Z,2.20
2017-08-04T21:56:00.438Z,2.07
2017-08-04T21:58:35.125Z,2.10
2017-08-04T22:01:09.775Z,2.20
2017-08-04T22:03:44.288Z,1.87
2017-08-04T22:06:18.975Z,2.03
2017-08-04T22:08:54.678Z,1.77
2017-08-04T22:11:30.312Z,2.40
2017-08-04T22:14:05.043Z,2.10
2017-08-04T22:16:40.884Z,2.80
2017-08-04T22:19:15.528Z,2.00
2017-08-04T22:21:50.093Z,2.40
2017-08-04T22:24:24.757Z,2.10
2017-08-04T22:26:59.420Z,1.90
2017-08-04T22:29:33.920Z,2.33
2017-08-04T22:32:08.565Z,2.40
2017-08-04T22:34:43.174Z,2.30
2017-08-04T22:37:18.790Z,1.90
2017-08-04T22:39:53.202Z,1.73
2017-08-04T22:42:28.140Z,1.90
2017-08-04T22:45:02.836Z,2.00
2017-08-04T22:47:37.575Z,2.07
2017-08-04T22:50:12.167Z,2.07
2017-08-04T22:52:46.860Z,2.40
2017-08-04T22:55:21.472Z,2.20
2017-08-04T22:57:57.130Z,2.10
2017-08-04T23:00:32.675Z,2.53
2017-08-04T23:03:07.356Z,1.87
2017-08-04T23:05:42.003Z,2.10
2017-08-04T23:08:16.711Z,1.70
2017-08-04T23:10:51.339Z,2.40
2017-08-04T23:13:26.087Z,2.40
2017-08-04T23:16:00.741Z,2.03
2017-08-04T23:18:35.453Z,2.00
2017-08-04T23:21:10.151Z,2.10
2017-08-04T23:23:44.813Z,2.60
2017-08-04T23:26:19.592Z,2.03
2017-08-04T23:28:54.215Z,2.10
2017-08-04T23:31:28.842Z,2.50
2017-08-04T23:34:03.397Z,2.47
2017-08-04T23:36:38.001Z,2.40
2017-08-04T23:39:12.557Z,2.13
2017-08-04T23:41:47.359Z,2.67
2017-08-04T23:44:22.183Z,1.73
2017-08-04T23:46:56.917Z,2.40
2017-08-04T23:49:31.540Z,2.40
2017-08-04T23:52:06.040Z,2.70
2017-08-04T23:54:40.622Z,2.40
2017-08-04T23:57:15.909Z,2.20
2017-08-04T23:59:50.857Z,2.33
